createdAt,value
2023-04-02T04:03:11.369Z,98110.88
2023-04-02T04:07:44.354Z,98117.88
2023-04-02T04:12:20.166Z,98117.69
2023-04-02T04:16:49.379Z,98124.53
2023-04-02T04:21:15.477Z,98134.09
2023-04-02T04:25:30.506Z,98138.97
2023-04-02T04:29:55.907Z,98141.75
2023-04-02T04:34:18.742Z,98154.56
2023-04-02T04:38:35.233Z,98152.94
2023-04-02T04:42:50.758Z,98157.69
2023-04-02T04:47:10.646Z,98167.28
2023-04-02T04:51:37.087Z,98169.22
2023-04-02T04:55:53.244Z,98182.06
2023-04-02T05:00:25.938Z,98179.63
2023-04-02T05:04:40.963Z,98179.63
2023-04-02T05:09:03.487Z,98187.44
2023-04-02T05:13:29.435Z,98189.56
2023-04-02T05:17:57.177Z,98203.38
2023-04-02T05:22:22.962Z,98196.38
2023-04-02T05:26:42.914Z,98208.22
2023-04-02T05:31:03.225Z,98208.91
2023-04-02T05:35:21.133Z,98210.34
2023-04-02T05:39:32.936Z,98216.03
2023-04-02T05:43:49.000Z,98221.88
2023-04-02T05:48:09.108Z,98218.13
2023-04-02T05:52:30.973Z,98226.91
2023-04-02T05:56:46.820Z,98248.53
2023-04-02T06:01:24.053Z,98248.66
2023-04-02T06:05:42.171Z,98243.47
2023-04-02T06:10:24.806Z,98250.44
2023-04-02T06:14:37.182Z,98262.81
2023-04-02T06:18:49.161Z,98273.06
2023-04-02T06:23:11.109Z,98281.31
2023-04-02T06:27:26.517Z,98282.47
2023-04-02T06:31:50.709Z,98284.44
2023-04-02T06:36:06.517Z,98288.16
2023-04-02T06:40:46.481Z,98293.34
2023-04-02T06:45:26.333Z,98307.84
2023-04-02T06:50:26.907Z,98320.34
2023-04-02T06:54:39.297Z,98335.34
2023-04-02T06:58:54.856Z,98334.69
2023-04-02T07:03:17.305Z,98351.75
2023-04-02T07:07:31.051Z,98348.34
2023-04-02T07:11:43.794Z,98354.50
2023-04-02T07:15:56.158Z,98363.94
2023-04-02T07:20:25.021Z,98372.41
2023-04-02T07:24:36.844Z,98382.16
2023-04-02T07:28:48.569Z,98385.38
2023-04-02T07:33:00.251Z,98397.72
2023-04-02T07:37:14.487Z,98403.75
2023-04-02T07:41:26.323Z,98408.81
2023-04-02T07:45:38.284Z,98414.00
2023-04-02T07:49:49.914Z,98413.22
2023-04-02T07:54:01.746Z,98422.16
2023-04-02T07:58:13.280Z,98431.97
2023-04-02T08:02:24.860Z,98438.47
2023-04-02T08:06:36.371Z,98438.75
2023-04-02T08:10:48.353Z,98455.50
2023-04-02T08:14:59.869Z,98457.59
2023-04-02T08:19:11.442Z,98458.56
2023-04-02T08:23:23.522Z,98467.81
2023-04-02T08:27:35.008Z,98475.16
2023-04-02T08:31:46.682Z,98478.03
2023-04-02T08:35:58.245Z,98487.88
2023-04-02T08:40:26.803Z,98490.63
2023-04-02T08:44:49.306Z,98500.25
2023-04-02T08:49:08.770Z,98516.41
2023-04-02T08:53:24.584Z,98525.19
2023-04-02T08:57:50.330Z,98527.63
2023-04-02T09:02:35.748Z,98540.94
2023-04-02T09:06:49.341Z,98540.41
2023-04-02T09:11:13.944Z,98542.81
2023-04-02T09:15:34.691Z,98542.09
2023-04-02T09:20:03.362Z,98543.63
2023-04-02T09:24:14.938Z,98546.88
2023-04-02T09:28:27.063Z,98547.28
2023-04-02T09:32:49.329Z,98562.53
2023-04-02T09:37:08.641Z,98572.53
2023-04-02T09:41:21.082Z,98574.72
2023-04-02T09:45:32.692Z,98580.47
2023-04-02T09:49:44.257Z,98598.66
2023-04-02T09:54:04.816Z,98592.97
2023-04-02T09:58:17.305Z,98604.56
2023-04-02T10:02:29.913Z,98611.84
2023-04-02T10:06:49.966Z,98618.22
2023-04-02T10:11:07.761Z,98627.75
2023-04-02T10:15:26.278Z,98631.03
2023-04-02T10:19:40.741Z,98636.72
2023-04-02T10:23:52.430Z,98642.13
2023-04-02T10:28:25.038Z,98650.56
2023-04-02T10:33:05.532Z,98650.44
2023-04-02T10:37:41.971Z,98662.00
2023-04-02T10:42:02.809Z,98662.88
2023-04-02T10:46:36.776Z,98660.81
2023-04-02T10:51:06.707Z,98677.78
2023-04-02T10:55:23.745Z,98683.31
2023-04-02T10:59:39.866Z,98683.31
2023-04-02T11:03:58.585Z,98692.94
2023-04-02T11:08:34.346Z,98700.75
2023-04-02T11:13:02.711Z,98702.34
2023-04-02T11:17:16.212Z,98708.34
2023-04-02T11:21:47.675Z,98714.16
2023-04-02T11:26:42.463Z,98714.44
2023-04-02T11:30:55.219Z,98723.69
2023-04-02T11:35:27.565Z,98725.78
2023-04-02T11:39:56.754Z,98728.38
2023-04-02T11:44:22.739Z,98735.84
2023-04-02T11:48:36.267Z,98749.72
2023-04-02T11:52:47.855Z,98755.78
2023-04-02T11:57:10.643Z,98759.06
2023-04-02T12:01:43.931Z,98774.81
2023-04-02T12:06:13.251Z,98778.38
2023-04-02T12:10:32.533Z,98781.16
2023-04-02T12:14:48.709Z,98808.19
2023-04-02T12:19:01.105Z,98815.31
2023-04-02T12:23:19.997Z,98817.72
2023-04-02T12:27:31.604Z,98825.97
2023-04-02T12:31:47.770Z,98830.31
2023-04-02T12:36:06.210Z,98830.94
2023-04-02T12:40:18.576Z,98847.31
2023-04-02T12:44:31.138Z,98848.88
2023-04-02T12:48:42.743Z,98855.56
2023-04-02T12:52:58.217Z,98863.72
2023-04-02T12:57:24.964Z,98868.72
2023-04-02T13:01:36.544Z,98879.16
2023-04-02T13:05:53.062Z,98883.63
2023-04-02T13:10:22.963Z,98882.31
2023-04-02T13:14:34.536Z,98886.03
2023-04-02T13:18:48.389Z,98910.03
2023-04-02T13:23:01.523Z,98896.91
2023-04-02T13:27:13.028Z,98911.31
2023-04-02T13:31:24.649Z,98915.53
2023-04-02T13:35:36.424Z,98923.28
2023-04-02T13:39:48.088Z,98916.16
2023-04-02T13:44:02.393Z,98924.56
2023-04-02T13:48:15.884Z,98923.53
2023-04-02T13:52:27.458Z,98947.44
2023-04-02T13:56:38.994Z,98945.66
2023-04-02T14:00:51.182Z,98955.03
2023-04-02T14:05:18.643Z,98961.56
2023-04-02T14:09:33.006Z,98971.22
2023-04-02T14:13:59.566Z,98985.03
2023-04-02T14:18:20.300Z,98988.94
2023-04-02T14:22:59.382Z,98977.69
2023-04-02T14:27:35.566Z,98994.56
2023-04-02T14:32:02.922Z,98998.63
2023-04-02T14:36:51.029Z,99002.81
2023-04-02T14:41:11.457Z,99008.94
2023-04-02T14:45:47.786Z,99002.94
2023-04-02T14:50:09.996Z,99014.97
2023-04-02T14:54:33.684Z,99025.53
2023-04-02T14:58:51.856Z,99029.41
2023-04-02T15:03:16.361Z,99039.34
2023-04-02T15:07:35.999Z,99041.47
2023-04-02T15:12:20.358Z,99040.50
2023-04-02T15:16:33.256Z,99041.22
2023-04-02T15:21:01.756Z,99056.03
2023-04-02T15:25:43.770Z,99057.53
2023-04-02T15:30:04.353Z,99061.78
2023-04-02T15:34:43.015Z,99060.13
2023-04-02T15:39:18.146Z,99075.47
2023-04-02T15:43:35.785Z,99086.28
2023-04-02T15:47:50.397Z,99095.72
2023-04-02T15:52:12.493Z,99085.59
2023-04-02T15:56:36.166Z,99093.53
2023-04-02T16:01:10.469Z,99103.91
2023-04-02T16:05:43.344Z,99103.78
2023-04-02T16:10:08.467Z,99114.03
2023-04-02T16:14:31.349Z,99106.94
2023-04-02T16:19:05.413Z,99120.75
2023-04-02T16:23:39.565Z,99130.16
2023-04-02T16:28:06.235Z,99120.19
2023-04-02T16:32:22.540Z,99135.63
2023-04-02T16:37:05.406Z,99139.19
2023-04-02T16:41:39.055Z,99159.69
2023-04-02T16:46:10.292Z,99150.66
2023-04-02T16:50:37.259Z,99152.44
2023-04-02T16:54:52.172Z,99163.75
2023-04-02T16:59:12.683Z,99169.72
2023-04-02T17:03:58.389Z,99177.13
2023-04-02T17:08:27.363Z,99201.03
2023-04-02T17:12:46.715Z,99200.59
2023-04-02T17:17:03.513Z,99196.75
2023-04-02T17:21:19.302Z,99220.66
2023-04-02T17:25:35.345Z,99227.91
2023-04-02T17:29:55.435Z,99233.22
2023-04-02T17:34:13.618Z,99239.84
2023-04-02T17:38:43.990Z,99263.16
2023-04-02T17:43:12.430Z,99273.47
2023-04-02T17:47:53.136Z,99284.25
2023-04-02T17:52:32.138Z,99285.38
2023-04-02T17:57:00.219Z,99306.06
2023-04-02T18:01:33.550Z,99303.72
2023-04-02T18:06:00.400Z,99314.34
2023-04-02T18:10:27.298Z,99324.28
2023-04-02T18:14:55.646Z,99332.28
2023-04-02T18:19:24.902Z,99340.31
2023-04-02T18:23:50.332Z,99352.72
2023-04-02T18:28:23.110Z,99354.53
2023-04-02T18:32:46.699Z,99362.34
2023-04-02T18:37:15.228Z,99387.56
2023-04-02T18:41:45.884Z,99395.00
2023-04-02T18:46:25.401Z,99400.44
2023-04-02T18:50:40.026Z,99425.94
2023-04-02T18:55:01.256Z,99424.53
2023-04-02T18:59:31.553Z,99428.53
2023-04-02T19:03:52.598Z,99447.84
2023-04-02T19:08:28.805Z,99448.88
2023-04-02T19:12:40.756Z,99464.41
2023-04-02T19:17:23.340Z,99469.72
2023-04-02T19:21:56.652Z,99490.41
2023-04-02T19:26:18.627Z,99499.78
2023-04-02T19:30:56.562Z,99506.44
2023-04-02T19:35:26.910Z,99503.72
2023-04-02T19:40:04.532Z,99519.00
2023-04-02T19:44:17.283Z,99524.00
2023-04-02T19:48:44.265Z,99546.22
2023-04-02T19:52:55.943Z,99553.88
2023-04-02T19:57:08.862Z,99547.91
2023-04-02T20:01:20.600Z,99550.91
2023-04-02T20:05:32.155Z,99560.19
2023-04-02T20:09:43.755Z,99558.25
2023-04-02T20:13:55.438Z,99574.41
2023-04-02T20:18:07.454Z,99579.38
2023-04-02T20:22:19.178Z,99583.72
2023-04-02T20:26:30.907Z,99584.41
2023-04-02T20:30:42.411Z,99584.22
2023-04-02T20:34:54.339Z,99578.84
2023-04-02T20:39:08.294Z,99585.16
2023-04-02T20:43:19.914Z,99596.72
2023-04-02T20:47:31.732Z,99609.56
2023-04-02T20:51:43.330Z,99609.66
2023-04-02T20:56:06.442Z,99608.94
2023-04-02T21:00:18.185Z,99613.88
2023-04-02T21:04:29.740Z,99612.44
2023-04-02T21:08:41.239Z,99619.69
2023-04-02T21:12:52.938Z,99628.06
2023-04-02T21:17:06.041Z,99621.03
2023-04-02T21:22:21.298Z,99617.03
2023-04-02T21:27:51.698Z,99617.31
